Time;durP1;ratioP1;P1;durP2;ratioP2;P2;SDS_P1;SDS_P2;PMS_P1;PMS_P2;Temp;Humidity;BMP_temperature;BMP_pressure;BME280_temperature;BME280_humidity;BME280_pressure;Samples;Min_cycle;Max_cycle;Signal;HPM_P1;HPM_P2
2023/03/17 00:00:33;;;;;;;6.30;2.17;;;8.60;77.20;;;;;;5074248;28;20078;-89
2023/03/17 00:03:00;;;;;;;6.72;2.60;;;8.60;77.20;;;;;;5067797;28;20526;-89
2023/03/17 00:05:30;;;;;;;7.97;2.60;;;8.60;77.30;;;;;;5065168;28;20449;-88
2023/03/17 00:08:03;;;;;;;7.30;2.97;;;8.60;77.50;;;;;;5079527;28;20550;-89
2023/03/17 00:10:30;;;;;;;5.45;2.10;;;8.60;77.30;;;;;;5096098;28;20147;-88
2023/03/17 00:12:55;;;;;;;6.60;2.60;;;8.60;77.40;;;;;;5066715;28;20223;-88
2023/03/17 00:15:25;;;;;;;6.07;2.25;;;8.60;77.40;;;;;;5082666;28;20569;-88
2023/03/17 00:17:53;;;;;;;7.15;2.40;;;8.60;77.50;;;;;;5089984;28;20071;-89
2023/03/17 00:20:26;;;;;;;6.22;2.58;;;8.60;77.60;;;;;;5090961;28;20524;-89
2023/03/17 00:22:56;;;;;;;;;;;8.60;77.60;;;;;;5074382;28;20040;-89
2023/03/17 00:25:26;;;;;;;6.40;2.20;;;8.60;78.10;;;;;;5090343;28;19927;-89
2023/03/17 00:27:52;;;;;;;6.55;2.53;;;8.60;77.70;;;;;;5073568;28;20071;-88
2023/03/17 00:30:18;;;;;;;8.05;2.42;;;8.50;77.80;;;;;;5090048;28;20032;-90
2023/03/17 00:32:45;;;;;;;7.38;2.58;;;8.60;77.90;;;;;;5073940;28;20039;-90
2023/03/17 00:35:22;;;;;;;7.57;2.60;;;8.50;77.80;;;;;;5073454;28;20047;-91
2023/03/17 00:37:49;;;;;;;7.30;2.63;;;8.60;77.80;;;;;;5073715;28;20101;-90
2023/03/17 00:40:18;;;;;;;7.15;2.60;;;8.60;77.90;;;;;;5073862;28;20039;-89
2023/03/17 00:42:44;;;;;;;8.00;2.50;;;8.60;78.00;;;;;;5073703;28;20032;-90
2023/03/17 00:45:10;;;;;;;7.28;2.25;;;8.50;78.00;;;;;;5073851;28;20044;-89
2023/03/17 00:47:37;;;;;;;8.52;2.95;;;8.50;77.90;;;;;;5072494;28;20036;-90
2023/03/17 00:50:03;;;;;;;7.60;2.90;;;8.60;78.00;;;;;;5073883;28;20099;-90
2023/03/17 00:52:29;;;;;;;7.72;3.20;;;8.60;78.00;;;;;;5077518;28;20088;-90
2023/03/17 00:54:55;;;;;;;8.45;2.65;;;8.60;77.80;;;;;;5077114;28;20122;-90
2023/03/17 00:57:21;;;;;;;8.93;2.80;;;8.60;77.80;;;;;;5094905;28;20050;-90
2023/03/17 00:59:47;;;;;;;9.30;2.65;;;8.50;77.90;;;;;;5077059;28;20501;-90
2023/03/17 01:02:13;;;;;;;5.63;2.40;;;8.50;77.90;;;;;;5077981;28;20554;-90
2023/03/17 01:04:40;;;;;;;8.23;2.72;;;8.50;77.90;;;;;;5077789;28;20035;-90
2023/03/17 01:07:06;;;;;;;9.65;2.67;;;8.50;78.00;;;;;;5076740;28;20063;-90
2023/03/17 01:09:32;;;;;;;5.90;2.30;;;8.50;78.20;;;;;;5094337;28;20109;-90
2023/03/17 01:11:59;;;;;;;6.80;2.65;;;8.50;78.20;;;;;;5077247;28;20051;-89
2023/03/17 01:14:25;;;;;;;6.28;2.65;;;8.50;78.30;;;;;;5077637;28;20058;-89
2023/03/17 01:16:53;;;;;;;6.50;2.58;;;8.40;78.30;;;;;;5077606;28;20064;-90
2023/03/17 01:19:19;;;;;;;8.07;3.05;;;8.40;78.50;;;;;;5076366;28;20577;-90
2023/03/17 01:21:45;;;;;;;6.95;2.78;;;8.40;78.60;;;;;;5093844;28;20075;-90
2023/03/17 01:24:11;;;;;;;10.35;3.28;;;8.40;78.60;;;;;;5076551;28;20040;-89
2023/03/17 01:26:38;;;;;;;7.22;2.63;;;8.30;78.70;;;;;;5076076;28;20036;-90
2023/03/17 01:29:06;;;;;;;7.38;2.90;;;8.40;78.80;;;;;;5093531;28;20084;-89
2023/03/17 01:31:32;;;;;;;6.60;2.45;;;8.30;79.40;;;;;;5076212;28;20043;-88
2023/03/17 01:33:58;;;;;;;6.95;2.70;;;8.30;78.90;;;;;;5094636;28;20036;-89
2023/03/17 01:36:24;;;;;;;6.85;2.55;;;8.30;78.80;;;;;;5093713;28;20393;-89
2023/03/17 01:38:49;;;;;;;8.02;2.58;;;8.30;79.40;;;;;;5093481;28;20040;-89
2023/03/17 01:41:17;;;;;;;5.60;2.40;;;8.30;79.00;;;;;;5077178;28;20040;-89
2023/03/17 01:43:43;;;;;;;8.73;2.63;;;8.30;79.00;;;;;;5093079;28;20122;-89
2023/03/17 01:46:19;;;;;;;8.38;2.50;;;8.30;79.20;;;;;;5094301;28;20063;-89
2023/03/17 01:49:18;;;;;;;8.43;2.60;;;8.30;79.30;;;;;;5092872;28;20032;-89
2023/03/17 01:52:06;;;;;;;8.60;2.88;;;8.30;79.60;;;;;;5056563;28;20043;-89
2023/03/17 01:54:52;;;;;;;7.93;2.95;;;8.20;79.70;;;;;;5076088;28;20121;-89
2023/03/17 01:57:23;;;;;;;7.20;2.78;;;8.20;80.10;;;;;;5076657;28;20066;-90
2023/03/17 01:59:54;;;;;;;8.10;2.97;;;8.20;80.20;;;;;;5076869;28;20367;-89
2023/03/17 02:02:27;;;;;;;6.30;2.60;;;8.20;80.20;;;;;;5092133;28;20531;-90
2023/03/17 02:04:54;;;;;;;6.68;2.47;;;8.20;80.30;;;;;;5076801;28;20038;-90
2023/03/17 02:07:21;;;;;;;8.73;3.15;;;8.10;80.30;;;;;;5074819;28;20061;-90
2023/03/17 02:09:48;;;;;;;7.43;2.83;;;8.10;80.40;;;;;;5092780;28;20089;-90
2023/03/17 02:12:14;;;;;;;7.65;3.00;;;8.10;80.40;;;;;;5076035;28;20044;-89
2023/03/17 02:14:40;;;;;;;7.75;3.03;;;8.10;80.50;;;;;;5075429;28;20034;-90
2023/03/17 02:17:06;;;;;;;8.65;2.95;;;8.10;80.50;;;;;;5093026;28;20047;-89
2023/03/17 02:19:33;;;;;;;7.82;3.20;;;8.10;80.50;;;;;;5075757;28;20039;-89
2023/03/17 02:21:59;;;;;;;7.45;2.88;;;8.10;80.40;;;;;;5092591;28;20043;-89
2023/03/17 02:24:29;;;;;;;6.93;2.70;;;8.10;80.50;;;;;;5076206;28;20123;-90
2023/03/17 02:26:59;;;;;;;7.32;2.55;;;8.10;80.70;;;;;;5092772;28;20128;-90
2023/03/17 02:29:24;;;;;;;6.85;2.67;;;8.10;80.70;;;;;;5092755;28;20048;-89
2023/03/17 02:31:51;;;;;;;7.05;3.00;;;8.10;80.70;;;;;;5075286;28;20453;-89
2023/03/17 02:34:16;;;;;;;6.72;2.70;;;8.10;80.80;;;;;;5093075;28;20036;-90
2023/03/17 02:36:42;;;;;;;7.28;2.90;;;8.10;80.70;;;;;;5075236;28;20047;-90
2023/03/17 02:39:07;;;;;;;8.02;3.15;;;8.10;80.80;;;;;;5092167;28;20063;-89
2023/03/17 02:41:34;;;;;;;9.52;3.28;;;8.10;80.80;;;;;;5092844;28;20123;-90
2023/03/17 02:44:00;;;;;;;8.27;3.20;;;8.10;81.00;;;;;;5092842;28;20577;-89
2023/03/17 02:46:26;;;;;;;6.93;2.88;;;8.10;81.00;;;;;;5092292;28;20115;-89
2023/03/17 02:48:53;;;;;;;9.82;2.85;;;8.10;81.10;;;;;;5075313;28;20036;-90
2023/03/17 02:51:18;;;;;;;8.18;2.85;;;8.10;81.10;;;;;;5091937;28;20515;-90
2023/03/17 02:53:44;;;;;;;7.65;2.95;;;8.10;81.20;;;;;;5092075;28;20035;-90
2023/03/17 02:56:10;;;;;;;6.68;2.78;;;8.00;81.10;;;;;;5091873;28;20564;-90
2023/03/17 02:58:35;;;;;;;8.85;3.15;;;8.00;81.30;;;;;;5091517;28;20089;-89
2023/03/17 03:01:02;;;;;;;7.63;3.03;;;8.00;81.30;;;;;;5075365;28;20490;-89
2023/03/17 03:03:28;;;;;;;7.22;2.92;;;8.00;81.40;;;;;;5074348;28;20051;-89
2023/03/17 03:05:53;;;;;;;7.05;2.67;;;8.00;81.40;;;;;;5091943;28;20044;-89
2023/03/17 03:08:19;;;;;;;6.43;2.75;;;8.00;81.50;;;;;;5074579;28;20051;-90
2023/03/17 03:10:45;;;;;;;6.65;2.70;;;8.00;81.60;;;;;;5090848;28;20070;-89
2023/03/17 03:13:11;;;;;;;8.63;2.85;;;8.00;81.50;;;;;;5075245;28;20039;-89
2023/03/17 03:15:39;;;;;;;7.57;3.00;;;8.00;81.60;;;;;;5074848;28;20032;-89
2023/03/17 03:18:05;;;;;;;6.70;2.50;;;8.00;81.60;;;;;;5091122;28;20118;-89
2023/03/17 03:20:31;;;;;;;7.53;2.88;;;8.00;81.70;;;;;;5092335;28;20453;-88
2023/03/17 03:22:56;;;;;;;6.63;2.75;;;7.90;81.60;;;;;;5091177;28;20541;-89
2023/03/17 03:25:22;;;;;;;8.05;2.85;;;7.90;82.30;;;;;;5075799;28;20554;-89
2023/03/17 03:27:48;;;;;;;8.88;3.17;;;7.90;81.70;;;;;;5074165;28;20123;-88
2023/03/17 03:30:14;;;;;;;6.50;2.80;;;7.90;81.70;;;;;;5074462;28;20064;-88
2023/03/17 03:32:39;;;;;;;8.35;3.00;;;7.90;81.80;;;;;;5075140;28;20115;-89
2023/03/17 03:35:07;;;;;;;7.55;2.83;;;7.90;81.90;;;;;;5090423;28;20035;-88
2023/03/17 03:37:32;;;;;;;8.18;3.22;;;7.90;81.90;;;;;;5073743;28;20451;-88
2023/03/17 03:39:58;;;;;;;8.50;2.90;;;7.90;82.00;;;;;;5091145;28;20028;-89
2023/03/17 03:42:24;;;;;;;7.93;2.97;;;7.90;82.60;;;;;;5074220;28;20107;-89
2023/03/17 03:44:49;;;;;;;6.25;2.75;;;7.90;82.00;;;;;;5091611;28;20169;-87
2023/03/17 03:47:15;;;;;;;8.48;3.15;;;7.90;82.00;;;;;;5090340;28;20092;-88
2023/03/17 03:49:40;;;;;;;6.30;2.80;;;7.90;82.20;;;;;;5074218;28;20405;-88
2023/03/17 03:52:06;;;;;;;7.40;2.85;;;7.90;82.40;;;;;;5073303;28;20170;-88
2023/03/17 03:54:32;;;;;;;7.40;2.95;;;7.90;82.40;;;;;;5074295;28;20473;-88
2023/03/17 03:56:57;;;;;;;8.57;3.03;;;7.80;82.50;;;;;;5073909;28;20044;-88
2023/03/17 03:59:23;;;;;;;8.43;3.50;;;7.80;82.50;;;;;;5073505;28;20111;-88
2023/03/17 04:01:48;;;;;;;8.02;2.85;;;7.90;82.60;;;;;;5074758;28;20039;-89
2023/03/17 04:04:15;;;;;;;7.95;2.90;;;7.90;82.50;;;;;;5090920;28;20093;-88
2023/03/17 04:06:40;;;;;;;7.57;3.30;;;7.80;82.60;;;;;;5073871;28;20078;-88
2023/03/17 04:09:06;;;;;;;7.07;2.85;;;7.90;83.30;;;;;;5090952;28;20067;-88
2023/03/17 04:11:32;;;;;;;8.85;4.00;;;7.80;82.70;;;;;;5073769;28;20028;-88
2023/03/17 04:13:57;;;;;;;6.50;2.50;;;7.80;82.70;;;;;;5074516;28;20036;-88
2023/03/17 04:16:23;;;;;;;7.10;2.88;;;7.80;82.80;;;;;;5090065;28;20039;-88
2023/03/17 04:18:48;;;;;;;7.13;2.90;;;7.80;82.70;;;;;;5091133;28;20044;-88
2023/03/17 04:21:17;;;;;;;7.80;2.85;;;7.80;83.10;;;;;;5073909;28;20505;-89
2023/03/17 04:23:44;;;;;;;7.50;2.83;;;7.80;83.30;;;;;;5090750;28;20574;-88
2023/03/17 04:26:10;;;;;;;10.38;2.92;;;7.80;83.50;;;;;;5073489;28;20079;-88
2023/03/17 04:28:36;;;;;;;9.07;3.03;;;7.80;83.50;;;;;;5073310;28;20036;-88
2023/03/17 04:31:02;;;;;;;7.00;2.88;;;7.80;83.70;;;;;;5074018;28;20044;-88
2023/03/17 04:33:27;;;;;;;6.97;2.47;;;7.80;83.70;;;;;;5090452;28;20036;-88
2023/03/17 04:35:53;;;;;;;6.68;2.28;;;7.80;83.70;;;;;;5089947;28;20143;-88
2023/03/17 04:38:19;;;;;;;7.00;2.72;;;7.80;83.70;;;;;;5075304;28;20509;-88
2023/03/17 04:40:45;;;;;;;7.22;2.78;;;7.80;83.70;;;;;;5092047;28;20032;-88
2023/03/17 04:43:11;;;;;;;7.88;2.80;;;7.80;83.70;;;;;;5074658;28;20043;-88
2023/03/17 04:45:36;;;;;;;6.63;2.42;;;7.80;83.70;;;;;;5074752;28;20074;-88
2023/03/17 04:48:02;;;;;;;7.50;2.55;;;7.80;83.80;;;;;;5090236;28;20091;-88
2023/03/17 04:50:28;;;;;;;7.28;2.60;;;7.80;83.90;;;;;;5073761;28;20047;-88
2023/03/17 04:52:53;;;;;;;7.55;2.90;;;7.80;84.00;;;;;;5090870;28;20028;-88
2023/03/17 04:55:19;;;;;;;7.88;2.90;;;7.80;84.30;;;;;;5089734;28;20028;-88
2023/03/17 04:57:45;;;;;;;6.70;2.78;;;7.80;84.40;;;;;;5090596;28;20058;-88
2023/03/17 05:00:11;;;;;;;7.25;3.05;;;7.80;84.50;;;;;;5072815;28;20496;-88
2023/03/17 05:02:37;;;;;;;7.18;2.58;;;7.70;84.60;;;;;;5089979;28;20081;-88
2023/03/17 05:05:04;;;;;;;7.55;2.70;;;7.80;84.80;;;;;;5073171;28;20489;-88
2023/03/17 05:07:30;;;;;;;8.00;3.00;;;7.70;84.70;;;;;;5089147;28;20135;-88
2023/03/17 05:09:56;;;;;;;8.38;2.90;;;7.70;84.70;;;;;;5090550;28;20068;-88
2023/03/17 05:12:22;;;;;;;6.95;2.40;;;7.70;84.70;;;;;;5089771;28;20032;-88
2023/03/17 05:14:47;;;;;;;6.78;2.60;;;7.70;84.80;;;;;;5090296;28;20035;-88
2023/03/17 05:17:13;;;;;;;7.05;2.67;;;7.70;84.90;;;;;;5073898;28;20032;-88
2023/03/17 05:19:39;;;;;;;8.13;2.78;;;7.80;85.00;;;;;;5072787;28;20524;-88
2023/03/17 05:22:05;;;;;;;7.90;3.00;;;7.70;84.90;;;;;;5074015;28;20118;-88
2023/03/17 05:24:30;;;;;;;6.85;2.65;;;7.80;85.10;;;;;;5073418;28;20044;-89
2023/03/17 05:26:56;;;;;;;7.05;2.72;;;7.80;85.10;;;;;;5073289;28;20044;-88
2023/03/17 05:29:22;;;;;;;6.53;2.42;;;7.80;85.10;;;;;;5072629;28;20040;-88
2023/03/17 05:31:47;;;;;;;7.28;2.90;;;7.70;85.00;;;;;;5090337;28;20048;-88
2023/03/17 05:34:14;;;;;;;6.47;2.67;;;7.70;85.10;;;;;;5089483;28;20048;-88
2023/03/17 05:36:40;;;;;;;8.25;2.88;;;7.70;85.10;;;;;;5073727;28;20131;-88
2023/03/17 05:39:06;;;;;;;6.75;2.13;;;7.70;84.90;;;;;;5093201;28;20118;-88
2023/03/17 05:41:32;;;;;;;8.45;2.60;;;7.80;85.00;;;;;;5093519;28;20032;-88
2023/03/17 05:43:58;;;;;;;7.25;2.65;;;7.80;85.00;;;;;;5094214;28;20477;-88
2023/03/17 05:46:24;;;;;;;7.20;2.42;;;7.80;84.90;;;;;;5093042;28;20542;-88
2023/03/17 05:48:49;;;;;;;6.88;2.42;;;7.80;84.80;;;;;;5073984;28;20036;-88
2023/03/17 05:51:15;;;;;;;5.35;1.98;;;7.80;84.90;;;;;;5092548;28;20040;-89
2023/03/17 05:53:41;;;;;;;5.55;2.00;;;7.90;84.90;;;;;;5075063;28;20040;-90
2023/03/17 05:56:06;;;;;;;6.05;2.28;;;7.90;84.70;;;;;;5076118;28;20040;-89
2023/03/17 05:58:32;;;;;;;7.47;2.97;;;7.90;84.60;;;;;;5074767;28;20676;-89
2023/03/17 06:00:58;;;;;;;7.70;2.30;;;7.90;84.60;;;;;;5092785;28;20066;-89
2023/03/17 06:03:24;;;;;;;6.50;2.22;;;8.00;84.60;;;;;;5075724;28;20068;-89
2023/03/17 06:05:49;;;;;;;7.20;2.60;;;8.00;84.60;;;;;;5092624;28;20104;-90
2023/03/17 06:08:15;;;;;;;7.25;2.60;;;8.00;84.60;;;;;;5092662;28;20489;-88
2023/03/17 06:10:41;;;;;;;7.45;2.35;;;8.00;84.50;;;;;;5075405;28;20044;-89
2023/03/17 06:13:07;;;;;;;7.00;2.60;;;8.10;84.70;;;;;;5092687;28;20032;-89
2023/03/17 06:15:35;;;;;;;6.30;2.40;;;8.10;84.80;;;;;;5092013;28;20070;-89
2023/03/17 06:18:00;;;;;;;7.93;2.67;;;8.10;84.80;;;;;;5075225;28;20036;-89
2023/03/17 06:20:26;;;;;;;6.95;2.10;;;8.10;84.90;;;;;;5092043;28;20100;-90
2023/03/17 06:22:52;;;;;;;5.03;2.00;;;8.20;85.00;;;;;;5091451;28;20044;-89
2023/03/17 06:25:17;;;;;;;4.85;2.00;;;8.20;84.80;;;;;;5075185;28;20054;-90
2023/03/17 06:27:43;;;;;;;6.93;2.45;;;8.30;84.80;;;;;;5091358;28;20078;-90
2023/03/17 06:30:10;;;;;;;6.57;2.50;;;8.30;84.60;;;;;;5092755;28;20032;-89
2023/03/17 06:32:36;;;;;;;8.57;2.35;;;8.40;84.30;;;;;;5075490;28;20044;-89
2023/03/17 06:35:04;;;;;;;7.22;2.20;;;8.40;84.10;;;;;;5075429;28;20040;-88
2023/03/17 06:37:29;;;;;;;6.70;2.28;;;8.50;83.90;;;;;;5092012;28;20443;-89
2023/03/17 06:39:56;;;;;;;7.55;2.55;;;8.50;83.70;;;;;;5072617;28;20036;-89
2023/03/17 06:42:22;;;;;;;6.32;2.25;;;8.60;83.80;;;;;;5091783;28;20036;-89
2023/03/17 06:44:51;;;;;;;7.43;2.47;;;8.60;83.70;;;;;;5075001;28;20109;-88
2023/03/17 06:47:17;;;;;;;6.72;2.40;;;8.70;83.60;;;;;;5091720;28;20581;-90
2023/03/17 06:49:42;;;;;;;7.63;2.58;;;8.80;83.60;;;;;;5108919;28;20062;-90
2023/03/17 06:52:08;;;;;;;5.97;2.00;;;8.80;83.40;;;;;;5091464;28;20661;-89
2023/03/17 06:54:35;;;;;;;7.18;2.25;;;8.90;83.00;;;;;;5092421;28;20127;-89
2023/03/17 06:57:00;;;;;;;8.25;2.30;;;9.00;83.10;;;;;;5075050;28;20699;-90
2023/03/17 06:59:26;;;;;;;7.55;2.60;;;9.00;82.80;;;;;;5091208;28;20119;-89
2023/03/17 07:01:52;;;;;;;6.60;2.30;;;9.10;83.20;;;;;;5074261;28;20754;-89
2023/03/17 07:04:18;;;;;;;8.80;2.72;;;9.10;82.20;;;;;;5074045;28;20078;-89
2023/03/17 07:06:44;;;;;;;7.10;2.53;;;9.20;81.90;;;;;;5074342;28;20113;-90
2023/03/17 07:09:10;;;;;;;6.85;2.38;;;9.30;82.10;;;;;;5073129;28;20039;-90
2023/03/17 07:11:36;;;;;;;6.18;2.42;;;9.30;82.20;;;;;;5074689;28;20405;-89
2023/03/17 07:14:01;;;;;;;6.13;2.30;;;9.40;81.90;;;;;;5091728;28;20068;-89
2023/03/17 07:16:27;;;;;;;8.75;2.17;;;9.40;82.10;;;;;;5089077;28;20036;-91
2023/03/17 07:18:54;;;;;;;6.70;2.30;;;9.40;82.10;;;;;;5074119;28;20028;-90
2023/03/17 07:21:19;;;;;;;6.05;2.42;;;9.50;81.80;;;;;;5073516;28;20032;-90
2023/03/17 07:23:45;;;;;;;7.75;2.50;;;9.50;82.20;;;;;;5074464;28;20554;-89
2023/03/17 07:26:11;;;;;;;8.20;2.50;;;9.50;81.10;;;;;;5073310;28;20067;-90
2023/03/17 07:28:36;;;;;;;7.15;2.63;;;9.50;81.10;;;;;;5091309;28;20036;-89
2023/03/17 07:31:04;;;;;;;6.15;2.25;;;9.60;81.00;;;;;;5074383;28;20040;-89
2023/03/17 07:33:30;;;;;;;7.90;2.50;;;9.60;80.80;;;;;;5090957;28;20035;-89
2023/03/17 07:35:56;;;;;;;7.45;2.78;;;9.70;81.00;;;;;;5074175;28;20404;-90
2023/03/17 07:38:22;;;;;;;5.47;2.25;;;9.70;80.60;;;;;;5073921;28;20040;-89
2023/03/17 07:40:47;;;;;;;7.90;2.72;;;9.70;80.70;;;;;;5091283;28;20040;-90
2023/03/17 07:43:14;;;;;;;8.48;2.83;;;9.80;80.40;;;;;;5073297;28;20092;-89
2023/03/17 07:45:40;;;;;;;7.18;2.58;;;9.80;80.40;;;;;;5090447;28;20050;-89
2023/03/17 07:48:07;;;;;;;7.55;2.55;;;9.90;80.40;;;;;;5073448;28;20398;-89
2023/03/17 07:50:33;;;;;;;6.03;2.22;;;9.90;80.30;;;;;;5074150;28;20047;-90
2023/03/17 07:52:59;;;;;;;9.43;2.53;;;10.00;80.30;;;;;;5091178;28;20036;-90
2023/03/17 07:55:25;;;;;;;6.72;2.53;;;10.10;80.30;;;;;;5090484;28;20040;-90
2023/03/17 07:57:51;;;;;;;8.00;2.53;;;10.10;80.10;;;;;;5073673;28;20040;-89
2023/03/17 08:00:18;;;;;;;8.55;2.63;;;10.20;79.70;;;;;;5090224;28;20130;-90
2023/03/17 08:02:45;;;;;;;7.13;2.40;;;10.30;79.60;;;;;;5089851;28;20532;-89
2023/03/17 08:05:11;;;;;;;6.32;2.60;;;10.40;80.00;;;;;;5073421;28;20048;-90
2023/03/17 08:07:37;;;;;;;6.32;2.40;;;10.40;79.70;;;;;;5089643;28;20050;-91
2023/03/17 08:10:04;;;;;;;7.53;2.25;;;10.50;79.20;;;;;;5073847;28;20032;-91
2023/03/17 08:12:30;;;;;;;8.02;2.70;;;10.50;79.00;;;;;;5073339;28;20032;-90
2023/03/17 08:14:56;;;;;;;7.45;2.97;;;10.50;78.90;;;;;;5090648;28;20040;-90
2023/03/17 08:17:25;;;;;;;9.07;2.67;;;10.60;78.70;;;;;;5072987;28;20036;-90
2023/03/17 08:19:54;;;;;;;6.80;2.40;;;10.70;78.70;;;;;;5072806;28;20485;-89
2023/03/17 08:22:20;;;;;;;6.50;2.55;;;10.70;78.40;;;;;;5072635;28;20043;-90
2023/03/17 08:24:45;;;;;;;8.48;2.72;;;10.70;78.40;;;;;;5071562;28;20040;-89
2023/03/17 08:27:12;;;;;;;8.75;2.80;;;10.80;78.50;;;;;;5072178;28;20069;-90
2023/03/17 08:29:38;;;;;;;8.48;3.08;;;10.80;78.10;;;;;;5089198;28;20524;-89
2023/03/17 08:32:04;;;;;;;7.43;2.90;;;10.90;78.20;;;;;;5090516;28;20036;-91
2023/03/17 08:34:30;;;;;;;8.50;3.10;;;10.90;78.40;;;;;;5073456;28;20039;-89
2023/03/17 08:36:56;;;;;;;9.35;2.90;;;10.90;78.70;;;;;;5089703;28;20405;-89
2023/03/17 08:39:21;;;;;;;6.35;2.63;;;11.00;78.80;;;;;;5073298;28;20074;-90
2023/03/17 08:41:47;;;;;;;9.57;3.00;;;11.00;78.40;;;;;;5073167;28;20039;-90
2023/03/17 08:44:13;;;;;;;7.47;2.70;;;11.10;78.40;;;;;;5074026;28;20024;-90
2023/03/17 08:46:39;;;;;;;7.93;2.83;;;11.20;78.70;;;;;;5089388;28;20476;-91
2023/03/17 08:49:06;;;;;;;7.95;3.08;;;11.20;78.60;;;;;;5089168;28;20036;-91
2023/03/17 08:51:34;;;;;;;6.80;2.92;;;11.30;78.70;;;;;;5074020;28;20115;-91
2023/03/17 08:54:01;;;;;;;8.30;2.95;;;11.40;78.50;;;;;;5089855;28;20675;-91
2023/03/17 08:56:27;;;;;;;8.23;2.92;;;11.40;78.40;;;;;;5073511;28;20036;-91
2023/03/17 08:58:53;;;;;;;6.97;2.70;;;11.50;78.30;;;;;;5090308;28;20043;-91
2023/03/17 09:01:20;;;;;;;10.95;3.25;;;11.50;78.10;;;;;;5074073;28;20067;-91
2023/03/17 09:03:46;;;;;;;7.93;3.00;;;11.60;78.00;;;;;;5073407;28;20036;-92
2023/03/17 09:06:12;;;;;;;8.93;2.65;;;11.60;78.00;;;;;;5074434;28;20093;-91
2023/03/17 09:08:43;;;;;;;6.63;2.53;;;11.70;77.70;;;;;;5089326;28;20040;-91
2023/03/17 09:11:19;;;;;;;8.00;2.60;;;11.70;77.40;;;;;;5088376;28;20390;-91
2023/03/17 09:13:46;;;;;;;8.60;3.35;;;11.80;77.00;;;;;;5075665;28;20032;-91
2023/03/17 09:16:13;;;;;;;10.15;3.05;;;11.90;76.80;;;;;;5092435;28;20672;-91
2023/03/17 09:18:42;;;;;;;8.02;2.95;;;11.90;76.90;;;;;;5076671;28;20081;-90
2023/03/17 09:21:09;;;;;;;7.82;2.70;;;11.90;76.80;;;;;;5077123;28;20040;-92
2023/03/17 09:23:35;;;;;;;7.75;3.13;;;12.00;76.80;;;;;;5094401;28;20047;-91
2023/03/17 09:26:02;;;;;;;7.75;2.92;;;12.00;76.60;;;;;;5077721;28;20032;-91
2023/03/17 09:28:28;;;;;;;8.23;2.78;;;12.10;76.50;;;;;;5065327;28;20040;-90
2023/03/17 09:30:58;;;;;;;7.75;3.13;;;12.10;76.40;;;;;;5077350;28;20035;-91
2023/03/17 09:33:23;;;;;;;9.15;3.30;;;12.20;75.80;;;;;;5093448;28;20024;-91
2023/03/17 09:35:51;;;;;;;10.23;3.35;;;12.30;76.60;;;;;;5076453;28;20043;-91
2023/03/17 09:38:16;;;;;;;10.73;3.70;;;12.40;75.50;;;;;;5078376;28;20043;-91
2023/03/17 09:40:56;;;;;;;8.68;3.33;;;12.40;74.80;;;;;;5076896;28;20485;-92
2023/03/17 09:43:47;;;;;;;9.85;3.55;;;12.50;74.20;;;;;;5077113;28;20071;-92
2023/03/17 09:46:16;;;;;;;8.50;3.80;;;12.50;74.40;;;;;;5087282;28;20046;-92
2023/03/17 09:49:02;;;;;;;10.00;3.42;;;12.60;74.20;;;;;;5093788;28;20040;-91
2023/03/17 09:51:31;;;;;;;17.77;3.58;;;12.70;73.50;;;;;;5076275;28;20424;-92
2023/03/17 09:54:02;;;;;;;9.85;3.67;;;12.80;74.00;;;;;;5094015;28;20654;-91
2023/03/17 09:56:31;;;;;;;9.85;3.78;;;12.90;72.80;;;;;;5074519;28;20040;-92
2023/03/17 09:59:03;;;;;;;9.63;4.00;;;12.90;73.20;;;;;;5076221;28;20050;-92
2023/03/17 10:01:31;;;;;;;8.13;3.22;;;13.00;73.10;;;;;;5075941;28;20039;-92
2023/03/17 10:03:57;;;;;;;10.18;3.25;;;13.10;73.30;;;;;;5093073;28;20129;-91
2023/03/17 10:06:34;;;;;;;10.38;4.55;;;13.10;73.20;;;;;;5076970;28;20083;-92
2023/03/17 10:09:17;;;;;;;11.02;3.78;;;13.20;73.50;;;;;;5092241;28;20044;-92
2023/03/17 10:11:46;;;;;;;8.13;3.55;;;13.30;73.10;;;;;;5076490;28;20374;-92
2023/03/17 10:14:27;;;;;;;10.48;4.00;;;13.40;73.30;;;;;;5076309;28;20040;-93
2023/03/17 10:17:01;;;;;;;9.82;3.92;;;13.50;73.30;;;;;;5074871;28;20126;-92
2023/03/17 10:19:34;;;;;;;10.95;4.78;;;13.60;72.80;;;;;;5092009;28;20044;-92
2023/03/17 10:22:07;;;;;;;8.40;3.60;;;13.70;72.40;;;;;;5092346;28;20043;-93
2023/03/17 10:24:35;;;;;;;8.73;3.38;;;13.80;72.60;;;;;;5075284;28;20509;-92
2023/03/17 10:27:03;;;;;;;9.75;4.90;;;13.90;73.10;;;;;;5074762;28;20119;-93
2023/03/17 10:29:31;;;;;;;9.50;3.78;;;14.10;73.00;;;;;;5091060;28;20024;-92
2023/03/17 10:31:57;;;;;;;9.63;3.67;;;14.20;72.50;;;;;;5092203;28;20469;-93
2023/03/17 10:34:27;;;;;;;9.15;4.85;;;14.20;71.90;;;;;;5073594;28;20118;-92
2023/03/17 10:36:59;;;;;;;10.30;5.22;;;14.30;72.40;;;;;;5090418;28;20036;-93
2023/03/17 10:39:25;;;;;;;9.05;3.47;;;14.50;71.70;;;;;;5074874;28;20538;-92
2023/03/17 10:41:57;;;;;;;8.95;3.33;;;14.60;71.10;;;;;;5075437;28;20036;-92
2023/03/17 10:44:47;;;;;;;10.93;4.70;;;14.60;70.10;;;;;;5075619;28;20036;-92
2023/03/17 10:47:22;;;;;;;9.80;5.15;;;14.70;69.60;;;;;;5092209;28;20044;-92
2023/03/17 10:49:50;;;;;;;9.80;3.95;;;15.00;70.80;;;;;;5092286;28;20040;-93
2023/03/17 10:52:24;;;;;;;10.52;5.10;;;15.10;69.90;;;;;;5075469;28;20404;-93
2023/03/17 10:54:53;;;;;;;8.88;4.68;;;15.30;69.90;;;;;;5093075;28;20390;-93
2023/03/17 10:57:20;;;;;;;9.80;4.75;;;15.40;68.80;;;;;;5075054;28;20074;-93
2023/03/17 10:59:53;;;;;;;11.50;5.05;;;15.60;68.20;;;;;;5074039;28;20063;-93
2023/03/17 11:02:27;;;;;;;9.70;4.80;;;15.60;67.50;;;;;;5075408;28;20036;-94
2023/03/17 11:05:23;;;;;;;10.15;4.07;;;15.70;67.80;;;;;;5092080;28;20040;-93
2023/03/17 11:07:55;;;;;;;9.60;5.00;;;15.80;67.60;;;;;;5089783;28;20646;-92
2023/03/17 11:10:24;;;;;;;9.00;3.72;;;15.80;67.50;;;;;;5075070;28;20032;-93
2023/03/17 11:13:00;;;;;;;8.85;4.72;;;15.90;68.00;;;;;;5074555;28;20074;-93
2023/03/17 11:15:41;;;;;;;11.00;5.05;;;16.00;67.00;;;;;;5091641;28;20109;-93
2023/03/17 11:18:17;;;;;;;9.55;4.97;;;16.20;67.80;;;;;;5074300;28;20400;-92
2023/03/17 11:21:18;;;;;;;9.95;4.60;;;16.30;66.40;;;;;;5075526;28;20108;-93
2023/03/17 11:24:01;;;;;;;10.32;4.88;;;16.50;67.90;;;;;;5087458;28;20047;-93
2023/03/17 11:26:57;;;;;;;9.35;4.38;;;16.70;66.00;;;;;;5091963;28;20044;-92
2023/03/17 11:30:06;;;;;;;11.00;5.13;;;16.80;65.70;;;;;;5074424;28;20044;-93
2023/03/17 11:32:44;;;;;;;10.95;4.65;;;16.90;65.50;;;;;;4974905;28;20497;-94
2023/03/17 11:35:38;;;;;;;11.40;5.95;;;17.00;65.40;;;;;;4991253;28;20043;-94
2023/03/17 11:38:16;;;;;;;10.75;5.18;;;17.10;65.60;;;;;;4976630;28;20061;-94
2023/03/17 11:41:09;;;;;;;11.38;5.55;;;17.20;65.20;;;;;;4993481;28;20045;-93
2023/03/17 11:43:53;;;;;;;;;;;17.30;64.50;;;;;;4993757;28;20049;-93
2023/03/17 11:46:21;;;;;;;;;;;17.30;64.40;;;;;;4993883;28;19929;-94
2023/03/17 11:49:27;;;;;;;10.07;4.95;;;17.20;63.00;;;;;;4991833;28;19929;-92
2023/03/17 11:52:18;;;;;;;9.27;4.93;;;17.30;64.00;;;;;;4977679;28;20142;-93
2023/03/17 11:54:47;;;;;;;12.02;5.53;;;17.20;63.90;;;;;;4993367;28;20036;-92
2023/03/17 11:57:34;;;;;;;10.23;5.10;;;17.10;62.70;;;;;;4992474;28;20085;-93
2023/03/17 12:00:04;;;;;;;8.90;5.22;;;17.10;63.30;;;;;;4977319;28;20045;-93
2023/03/17 12:02:42;;;;;;;10.25;5.57;;;17.00;63.70;;;;;;4976739;28;20057;-92
2023/03/17 12:05:15;;;;;;;9.07;4.75;;;16.90;64.30;;;;;;4993493;28;20048;-93
2023/03/17 12:07:52;;;;;;;10.57;5.00;;;16.70;64.70;;;;;;4976433;28;20081;-93
2023/03/17 12:10:43;;;;;;;11.00;5.15;;;16.60;65.10;;;;;;5063112;28;20131;-93
2023/03/17 12:13:38;;;;;;;10.38;4.97;;;16.60;65.80;;;;;;5074112;28;20127;-94
2023/03/17 12:16:32;;;;;;;10.00;5.10;;;16.50;66.90;;;;;;5053817;28;20036;-92
2023/03/17 12:19:16;;;;;;;10.70;5.15;;;16.40;66.10;;;;;;5053875;28;20394;-92
2023/03/17 12:22:00;;;;;;;9.68;4.82;;;16.30;65.30;;;;;;5079834;28;20047;-93
2023/03/17 12:24:34;;;;;;;9.20;4.03;;;16.30;65.40;;;;;;5055663;28;20043;-92
2023/03/17 12:27:15;;;;;;;10.32;5.05;;;16.20;65.60;;;;;;5063140;28;20048;-93
2023/03/17 12:30:01;;;;;;;9.57;5.45;;;16.20;66.10;;;;;;5077643;28;20111;-93
2023/03/17 12:32:45;;;;;;;8.98;4.22;;;16.20;66.60;;;;;;5084720;28;20085;-92
2023/03/17 12:35:27;;;;;;;8.70;4.88;;;16.10;65.50;;;;;;5084501;28;20044;-92
2023/03/17 12:37:55;;;;;;;10.13;3.50;;;16.10;65.70;;;;;;5063009;28;20040;-91
2023/03/17 12:40:59;;;;;;;10.77;4.93;;;16.10;66.40;;;;;;5096221;28;20458;-91
2023/03/17 12:43:35;;;;;;;9.25;5.28;;;16.20;67.50;;;;;;5096277;28;20043;-93
2023/03/17 12:46:27;;;;;;;11.23;5.13;;;16.20;67.10;;;;;;5087140;28;20093;-92
2023/03/17 12:48:58;;;;;;;9.88;5.00;;;16.20;67.40;;;;;;5082713;28;20036;-92
2023/03/17 12:51:53;;;;;;;10.23;5.03;;;16.10;67.70;;;;;;5099416;28;20539;-92
2023/03/17 12:54:25;;;;;;;8.65;4.18;;;16.20;67.10;;;;;;5085595;28;20069;-92
2023/03/17 12:56:58;;;;;;;10.30;4.38;;;16.20;66.50;;;;;;5097096;28;20088;-92
2023/03/17 12:59:25;;;;;;;9.88;5.18;;;16.10;66.70;;;;;;5078031;28;20040;-93
2023/03/17 13:02:20;;;;;;;9.02;5.05;;;16.10;67.10;;;;;;5077521;28;20043;-93
2023/03/17 13:04:59;;;;;;;10.02;5.15;;;16.30;66.00;;;;;;5094388;28;20569;-93